Time;durP1;ratioP1;P1;durP2;ratioP2;P2;SDS_P1;SDS_P2;PMS_P1;PMS_P2;Temp;Humidity;BMP_temperature;BMP_pressure;BME280_temperature;BME280_humidity;BME280_pressure;Samples;Min_cycle;Max_cycle;Signal;HPM_P1;HPM_P2
2022/04/11 00:02:23;;;;;;;0.40;0.20;;;5.00;99.90;;;;;;4991113;28;20390;-68
2022/04/11 00:04:49;;;;;;;0.40;0.20;;;5.10;99.90;;;;;;4991523;28;20930;-68
2022/04/11 00:07:15;;;;;;;0.40;0.20;;;5.20;99.90;;;;;;4991019;28;20497;-68
2022/04/11 00:09:42;;;;;;;0.40;0.20;;;5.00;99.90;;;;;;4991412;28;20391;-68
2022/04/11 00:12:09;;;;;;;0.40;0.20;;;5.10;99.90;;;;;;4991411;28;20713;-68
2022/04/11 00:14:34;;;;;;;0.40;0.20;;;5.20;99.90;;;;;;4990680;28;20386;-68
2022/04/11 00:17:00;;;;;;;0.40;0.20;;;5.10;99.90;;;;;;4991235;28;20375;-68
2022/04/11 00:19:26;;;;;;;0.40;0.20;;;4.90;99.90;;;;;;4990574;28;20383;-68
2022/04/11 00:21:51;;;;;;;0.40;0.20;;;4.90;99.90;;;;;;4991836;28;20391;-68
2022/04/11 00:24:17;;;;;;;0.40;0.20;;;4.80;99.90;;;;;;4991210;28;20408;-68
2022/04/11 00:26:43;;;;;;;0.40;0.20;;;4.90;99.90;;;;;;4989183;28;20423;-68
2022/04/11 00:29:09;;;;;;;0.40;0.20;;;4.80;99.90;;;;;;5006522;28;20390;-68
2022/04/11 00:31:34;;;;;;;0.40;0.20;;;4.90;99.90;;;;;;4990167;28;20395;-68
2022/04/11 00:34:00;;;;;;;0.40;0.20;;;4.80;99.90;;;;;;4991197;28;20414;-68
2022/04/11 00:36:26;;;;;;;0.40;0.20;;;4.90;99.90;;;;;;4991160;28;20473;-68
2022/04/11 00:38:51;;;;;;;0.40;0.20;;;4.90;99.90;;;;;;4990565;28;20414;-68
2022/04/11 00:41:17;;;;;;;0.40;0.20;;;4.90;99.90;;;;;;4990905;28;20426;-68
2022/04/11 00:43:43;;;;;;;0.40;0.20;;;5.00;99.90;;;;;;4990660;28;20386;-68
2022/04/11 00:46:09;;;;;;;0.40;0.20;;;4.90;99.90;;;;;;4996342;28;20405;-68
2022/04/11 00:48:36;;;;;;;0.40;0.30;;;4.80;99.90;;;;;;4997753;28;20465;-68
2022/04/11 00:51:05;;;;;;;0.40;0.40;;;4.80;99.90;;;;;;4996708;28;20732;-68
2022/04/11 00:53:32;;;;;;;0.40;0.20;;;4.90;99.90;;;;;;5012590;28;20410;-68
2022/04/11 00:55:58;;;;;;;0.40;0.20;;;4.90;99.90;;;;;;4996683;28;20425;-68
2022/04/11 00:58:24;;;;;;;0.40;0.20;;;4.90;99.90;;;;;;4997552;28;20444;-68
2022/04/11 01:00:50;;;;;;;0.50;0.40;;;4.90;99.90;;;;;;4997538;28;20479;-68
2022/04/11 01:03:17;;;;;;;0.40;0.20;;;5.10;99.90;;;;;;4996764;28;20738;-69
2022/04/11 01:05:42;;;;;;;0.40;0.20;;;5.00;99.90;;;;;;5012597;28;20398;-68
2022/04/11 01:08:09;;;;;;;0.40;0.20;;;5.00;99.90;;;;;;4996558;28;20441;-68
2022/04/11 01:10:35;;;;;;;0.40;0.20;;;5.10;99.90;;;;;;5020528;28;20394;-68
2022/04/11 01:13:02;;;;;;;0.40;0.30;;;5.00;99.90;;;;;;5036680;28;20490;-68
2022/04/11 01:15:28;;;;;;;0.40;0.20;;;5.10;99.90;;;;;;5035452;28;20398;-68
2022/04/11 01:17:54;;;;;;;0.40;0.20;;;5.20;99.90;;;;;;5036542;28;20701;-68
2022/04/11 01:20:20;;;;;;;0.40;0.20;;;5.20;99.90;;;;;;5035781;28;20398;-69
2022/04/11 01:22:46;;;;;;;0.40;0.20;;;5.20;99.90;;;;;;5036580;28;20395;-68
2022/04/11 01:25:13;;;;;;;0.50;0.50;;;5.20;99.90;;;;;;5036573;28;20383;-68
2022/04/11 01:27:39;;;;;;;0.40;0.20;;;5.20;99.90;;;;;;5034557;28;20410;-68
2022/04/11 01:30:08;;;;;;;0.40;0.20;;;5.20;99.90;;;;;;5036571;28;20387;-68
2022/04/11 01:32:35;;;;;;;0.40;0.20;;;5.20;99.90;;;;;;5035670;28;20536;-69
2022/04/11 01:35:01;;;;;;;0.40;0.20;;;5.30;99.90;;;;;;5036737;28;20564;-68
2022/04/11 01:37:27;;;;;;;0.40;0.20;;;5.10;99.90;;;;;;5036418;28;21017;-68
2022/04/11 01:39:53;;;;;;;0.40;0.30;;;5.10;99.90;;;;;;5035738;28;20405;-69
2022/04/11 01:42:19;;;;;;;0.40;0.20;;;5.10;99.90;;;;;;5037026;28;20391;-68
2022/04/11 01:44:45;;;;;;;0.40;0.20;;;5.10;99.90;;;;;;5035494;28;20418;-69
2022/04/11 01:47:11;;;;;;;0.40;0.20;;;5.20;99.90;;;;;;5035097;28;20387;-69
2022/04/11 01:49:36;;;;;;;0.40;0.20;;;5.20;99.90;;;;;;5036559;28;20438;-69
2022/04/11 01:52:03;;;;;;;0.40;0.20;;;5.20;99.90;;;;;;5033079;28;20432;-69
2022/04/11 01:54:28;;;;;;;0.40;0.20;;;5.30;99.90;;;;;;4997074;28;20424;-68
2022/04/11 01:56:54;;;;;;;0.40;0.20;;;5.30;99.90;;;;;;4993754;28;20839;-69
2022/04/11 01:59:20;;;;;;;0.40;0.30;;;5.30;99.90;;;;;;4993764;28;20382;-68
2022/04/11 02:01:45;;;;;;;0.40;0.20;;;5.30;99.90;;;;;;4997329;28;20387;-69
2022/04/11 02:04:11;;;;;;;0.40;0.20;;;5.30;99.90;;;;;;5012700;28;20389;-68
2022/04/11 02:06:37;;;;;;;0.40;0.20;;;5.30;99.90;;;;;;5013245;28;20392;-68
2022/04/11 02:09:04;;;;;;;0.40;0.20;;;5.30;99.90;;;;;;5011403;28;20878;-68
2022/04/11 02:11:29;;;;;;;0.40;0.20;;;5.30;99.90;;;;;;5032491;28;20387;-68
2022/04/11 02:13:55;;;;;;;0.40;0.20;;;5.30;99.90;;;;;;5015611;28;20463;-68
2022/04/11 02:16:23;;;;;;;0.40;0.20;;;5.30;99.90;;;;;;5012504;28;20459;-68
2022/04/11 02:18:49;;;;;;;0.40;0.20;;;5.30;99.90;;;;;;5013238;28;20402;-68
2022/04/11 02:21:14;;;;;;;0.40;0.20;;;5.40;99.90;;;;;;5012595;28;20392;-69
2022/04/11 02:23:40;;;;;;;0.40;0.20;;;5.40;99.90;;;;;;5013154;28;20383;-69
2022/04/11 02:26:06;;;;;;;0.40;0.20;;;5.30;99.90;;;;;;5012728;28;20376;-68
2022/04/11 02:28:31;;;;;;;0.40;0.20;;;5.40;99.90;;;;;;5012877;28;20475;-68
2022/04/11 02:30:57;;;;;;;0.40;0.30;;;5.40;99.90;;;;;;5012857;28;20378;-68
2022/04/11 02:33:23;;;;;;;0.40;0.20;;;5.30;99.90;;;;;;5012119;28;20412;-68
2022/04/11 02:35:48;;;;;;;0.40;0.20;;;5.30;99.90;;;;;;5012522;28;20527;-68
2022/04/11 02:38:14;;;;;;;1.50;0.70;;;5.30;99.90;;;;;;5012371;28;20549;-68
2022/04/11 02:40:40;;;;;;;0.40;0.30;;;5.20;99.90;;;;;;5012049;28;20408;-68
2022/04/11 02:43:06;;;;;;;0.40;0.20;;;5.20;99.90;;;;;;5012753;28;20567;-68
2022/04/11 02:45:32;;;;;;;0.40;0.20;;;5.20;99.90;;;;;;5010705;28;20872;-68
2022/04/11 02:47:57;;;;;;;0.40;0.20;;;5.10;99.90;;;;;;5012966;28;20555;-68
2022/04/11 02:50:23;;;;;;;0.40;0.20;;;5.20;99.90;;;;;;5012056;28;20388;-68
2022/04/11 02:52:49;;;;;;;0.40;0.20;;;5.20;99.90;;;;;;5012006;28;20409;-68
2022/04/11 02:55:15;;;;;;;0.40;0.20;;;5.10;99.90;;;;;;5011278;28;20908;-68
2022/04/11 02:57:40;;;;;;;0.90;0.60;;;5.10;99.90;;;;;;5011588;28;20435;-69
2022/04/11 03:00:14;;;;;;;0.40;0.20;;;5.20;99.90;;;;;;5012546;28;20766;-68
2022/04/11 03:02:40;;;;;;;0.40;0.20;;;5.10;99.90;;;;;;5010508;28;20387;-68
2022/04/11 03:05:06;;;;;;;0.40;0.20;;;5.20;99.90;;;;;;5012351;28;20771;-68
2022/04/11 03:07:32;;;;;;;0.40;0.20;;;5.20;99.90;;;;;;5012089;28;20504;-68
2022/04/11 03:09:58;;;;;;;0.40;0.20;;;5.10;99.90;;;;;;5017557;28;20467;-68
2022/04/11 03:12:25;;;;;;;0.40;0.20;;;5.10;99.90;;;;;;5031900;28;20379;-68
2022/04/11 03:14:51;;;;;;;0.80;0.80;;;5.00;99.90;;;;;;5031296;28;20390;-69
2022/04/11 03:17:17;;;;;;;0.40;0.20;;;5.00;99.90;;;;;;5047052;28;20479;-69
2022/04/11 03:19:44;;;;;;;0.40;0.20;;;4.90;99.90;;;;;;5046991;28;20382;-69
2022/04/11 03:22:12;;;;;;;0.40;0.20;;;4.90;99.90;;;;;;5031343;28;20437;-69
2022/04/11 03:24:38;;;;;;;0.40;0.20;;;4.80;99.90;;;;;;5031803;28;20383;-69
2022/04/11 03:27:04;;;;;;;0.40;0.20;;;4.80;99.90;;;;;;5031125;28;20859;-69
2022/04/11 03:29:30;;;;;;;0.40;0.20;;;4.80;99.90;;;;;;5031411;28;20390;-69
2022/04/11 03:31:56;;;;;;;0.40;0.20;;;4.70;99.90;;;;;;5030775;28;20383;-69
2022/04/11 03:34:22;;;;;;;0.40;0.20;;;4.70;99.90;;;;;;5031593;28;20894;-69
2022/04/11 03:36:48;;;;;;;0.40;0.20;;;4.70;99.90;;;;;;5031814;28;20418;-68
2022/04/11 03:39:14;;;;;;;0.40;0.20;;;4.70;99.90;;;;;;5030792;28;20763;-69
2022/04/11 03:41:43;;;;;;;0.40;0.20;;;4.70;99.90;;;;;;5031919;28;20383;-69
2022/04/11 03:44:10;;;;;;;0.40;0.20;;;4.60;99.90;;;;;;5029660;28;20740;-69
2022/04/11 03:46:39;;;;;;;0.40;0.20;;;4.50;99.90;;;;;;5031507;28;20465;-69
2022/04/11 03:49:05;;;;;;;0.40;0.20;;;4.50;99.90;;;;;;5031381;28;20390;-69
2022/04/11 03:51:31;;;;;;;0.40;0.20;;;4.50;99.90;;;;;;5031141;28;20402;-69
2022/04/11 03:53:57;;;;;;;0.40;0.20;;;4.50;99.90;;;;;;5031266;28;20426;-69
2022/04/11 03:56:23;;;;;;;0.40;0.20;;;4.40;99.90;;;;;;5030400;28;20391;-69
2022/04/11 03:58:48;;;;;;;0.40;0.20;;;4.40;99.90;;;;;;5031341;28;20379;-68
2022/04/11 04:01:14;;;;;;;0.40;0.20;;;4.30;99.90;;;;;;5030538;28;20816;-69
2022/04/11 04:03:40;;;;;;;0.40;0.20;;;4.30;99.90;;;;;;5030516;28;20386;-69
2022/04/11 04:06:06;;;;;;;0.40;0.20;;;4.20;99.90;;;;;;5031176;28;20409;-69
2022/04/11 04:08:32;;;;;;;0.40;0.20;;;4.20;99.90;;;;;;5030244;28;20403;-69
2022/04/11 04:10:58;;;;;;;0.40;0.20;;;4.20;99.90;;;;;;5015781;28;20884;-69
2022/04/11 04:13:24;;;;;;;0.40;0.20;;;4.20;99.90;;;;;;5009056;28;20487;-69
2022/04/11 04:15:50;;;;;;;0.40;0.20;;;4.20;99.90;;;;;;5011494;28;20985;-69
2022/04/11 04:18:16;;;;;;;0.50;0.50;;;4.30;99.90;;;;;;5011649;28;20479;-69
2022/04/11 04:20:41;;;;;;;0.40;0.20;;;4.20;99.90;;;;;;5009922;28;20898;-69
2022/04/11 04:23:08;;;;;;;0.40;0.20;;;4.10;99.90;;;;;;5011296;28;20389;-69
2022/04/11 04:25:34;;;;;;;0.40;0.20;;;4.10;99.90;;;;;;5009905;28;20472;-70
2022/04/11 04:28:00;;;;;;;0.40;0.20;;;4.10;99.90;;;;;;5010580;28;20392;-69
2022/04/11 04:30:26;;;;;;;0.40;0.20;;;4.10;99.90;;;;;;5011379;28;20384;-69
2022/04/11 04:32:56;;;;;;;0.40;0.20;;;4.00;99.90;;;;;;5010229;28;20869;-69
2022/04/11 04:35:22;;;;;;;0.40;0.20;;;4.00;99.90;;;;;;5010808;28;20791;-69
2022/04/11 04:37:48;;;;;;;0.40;0.30;;;4.00;99.90;;;;;;5008618;28;20431;-69
2022/04/11 04:40:13;;;;;;;0.40;0.20;;;3.90;99.90;;;;;;5013896;28;20886;-69
2022/04/11 04:42:39;;;;;;;0.40;0.20;;;3.90;99.90;;;;;;5010509;28;20384;-69
2022/04/11 04:45:06;;;;;;;0.40;0.20;;;3.80;99.90;;;;;;5005131;28;20964;-69
2022/04/11 04:47:31;;;;;;;0.40;0.20;;;3.80;99.90;;;;;;5008732;28;20401;-69
2022/04/11 04:49:57;;;;;;;0.40;0.20;;;3.70;99.90;;;;;;5011357;28;20404;-68
2022/04/11 04:52:23;;;;;;;0.40;0.20;;;3.70;99.90;;;;;;5019833;28;20471;-68
2022/04/11 04:54:48;;;;;;;0.40;0.20;;;3.70;99.90;;;;;;5019072;28;20389;-68
2022/04/11 04:57:14;;;;;;;0.40;0.20;;;3.70;99.90;;;;;;5036414;28;20397;-68
2022/04/11 04:59:40;;;;;;;0.40;0.20;;;3.70;99.90;;;;;;5019831;28;20387;-68
2022/04/11 05:02:06;;;;;;;0.40;0.20;;;3.60;99.90;;;;;;5021108;28;20730;-69
2022/04/11 05:04:31;;;;;;;0.40;0.20;;;3.60;99.90;;;;;;5008511;28;20495;-68
2022/04/11 05:06:57;;;;;;;0.40;0.20;;;3.40;99.90;;;;;;5008351;28;20413;-69
2022/04/11 05:09:22;;;;;;;1.50;0.50;;;3.40;99.90;;;;;;5003232;28;20775;-69
2022/04/11 05:11:48;;;;;;;0.40;0.20;;;3.30;99.90;;;;;;5027166;28;20401;-69
2022/04/11 05:14:14;;;;;;;0.40;0.20;;;3.30;99.90;;;;;;5017682;28;20407;-68
2022/04/11 05:16:40;;;;;;;0.40;0.20;;;3.30;99.90;;;;;;5014208;28;20410;-68
2022/04/11 05:19:05;;;;;;;0.40;0.20;;;3.30;99.90;;;;;;5000807;28;20393;-69
2022/04/11 05:21:31;;;;;;;0.40;0.20;;;3.30;99.90;;;;;;5007362;28;20857;-69
2022/04/11 05:23:57;;;;;;;0.40;0.28;;;3.30;99.90;;;;;;4999740;28;20415;-68
2022/04/11 05:26:23;;;;;;;0.40;0.20;;;3.40;99.90;;;;;;5008505;28;20389;-68
2022/04/11 05:28:49;;;;;;;0.40;0.20;;;3.30;99.90;;;;;;5008433;28;20395;-68
2022/04/11 05:31:15;;;;;;;0.40;0.20;;;3.30;99.90;;;;;;5009606;28;20444;-68
2022/04/11 05:33:41;;;;;;;0.40;0.20;;;3.30;99.90;;;;;;5013570;28;20420;-68
2022/04/11 05:36:07;;;;;;;0.40;0.20;;;3.30;99.90;;;;;;5013405;28;20793;-68
2022/04/11 05:38:33;;;;;;;0.40;0.20;;;3.20;99.90;;;;;;5013711;28;20490;-68
2022/04/11 05:40:59;;;;;;;0.40;0.20;;;3.40;99.90;;;;;;5013221;28;20385;-68
2022/04/11 05:43:25;;;;;;;0.40;0.20;;;3.50;99.90;;;;;;5014340;28;20789;-68
2022/04/11 05:45:50;;;;;;;0.40;0.20;;;3.50;99.90;;;;;;5013015;28;20888;-68
2022/04/11 05:48:16;;;;;;;0.40;0.20;;;3.50;99.90;;;;;;5012000;28;20393;-69
2022/04/11 05:50:42;;;;;;;0.40;0.20;;;3.60;99.90;;;;;;5010721;28;20475;-68
2022/04/11 05:53:07;;;;;;;0.40;0.20;;;3.60;99.90;;;;;;5011509;28;20412;-68
2022/04/11 05:55:33;;;;;;;0.40;0.20;;;3.70;99.90;;;;;;5013459;28;20395;-68
2022/04/11 05:57:59;;;;;;;0.40;0.20;;;3.90;99.90;;;;;;5013147;28;20412;-68
2022/04/11 06:00:25;;;;;;;0.90;0.90;;;3.90;99.90;;;;;;5012783;28;20411;-68
2022/04/11 06:02:51;;;;;;;0.40;0.20;;;4.00;99.90;;;;;;5013672;28;20781;-68
2022/04/11 06:05:17;;;;;;;0.43;0.40;;;4.10;99.90;;;;;;5012343;28;20381;-68
2022/04/11 06:07:43;;;;;;;0.40;0.20;;;4.10;99.90;;;;;;5013272;28;20444;-68
2022/04/11 06:10:09;;;;;;;0.40;0.20;;;4.20;99.90;;;;;;5021497;28;20413;-68
2022/04/11 06:12:35;;;;;;;0.40;0.20;;;4.20;99.90;;;;;;5031203;28;21265;-69
2022/04/11 06:15:02;;;;;;;0.40;0.20;;;4.40;99.90;;;;;;5033242;28;20426;-68
2022/04/11 06:17:28;;;;;;;0.40;0.20;;;4.40;99.90;;;;;;5031263;28;20397;-69
2022/04/11 06:19:56;;;;;;;0.50;0.50;;;4.50;99.90;;;;;;5032948;28;20462;-68
2022/04/11 06:22:23;;;;;;;0.40;0.20;;;4.70;99.90;;;;;;5033515;28;20395;-68
2022/04/11 06:24:49;;;;;;;0.40;0.20;;;4.70;99.90;;;;;;5032607;28;20426;-68
2022/04/11 06:27:17;;;;;;;0.40;0.30;;;4.90;99.90;;;;;;5033066;28;20899;-68
2022/04/11 06:29:43;;;;;;;0.40;0.20;;;5.00;99.90;;;;;;5032321;28;20723;-69
2022/04/11 06:32:10;;;;;;;0.40;0.20;;;5.10;99.90;;;;;;5032224;28;20391;-69
2022/04/11 06:34:36;;;;;;;0.40;0.20;;;5.20;99.90;;;;;;5028446;28;20403;-69
2022/04/11 06:37:03;;;;;;;0.40;0.20;;;5.30;99.90;;;;;;5007164;28;20419;-69
2022/04/11 06:39:29;;;;;;;0.40;0.20;;;5.40;99.90;;;;;;5011639;28;20831;-69
2022/04/11 06:41:56;;;;;;;0.40;0.40;;;5.60;99.90;;;;;;5012244;28;20393;-68
2022/04/11 06:44:21;;;;;;;0.40;0.30;;;5.70;99.90;;;;;;5012356;28;20393;-68
2022/04/11 06:46:47;;;;;;;0.40;0.20;;;5.80;99.90;;;;;;5012517;28;20384;-70
2022/04/11 06:49:13;;;;;;;0.40;0.20;;;5.80;99.90;;;;;;5012599;28;20731;-69
2022/04/11 06:51:39;;;;;;;0.40;0.20;;;5.90;99.90;;;;;;5013112;28;20960;-69
2022/04/11 06:54:04;;;;;;;0.40;0.20;;;5.90;99.90;;;;;;5009651;28;20539;-69
2022/04/11 06:56:31;;;;;;;0.40;0.20;;;6.20;99.90;;;;;;5012131;28;20437;-69
2022/04/11 06:58:57;;;;;;;0.40;0.20;;;6.40;99.90;;;;;;5011910;28;20385;-70
2022/04/11 07:01:22;;;;;;;0.40;0.20;;;6.50;99.90;;;;;;5011759;28;20494;-69
2022/04/11 07:03:48;;;;;;;0.40;0.20;;;6.80;98.30;;;;;;5012661;28;20809;-69
2022/04/11 07:06:14;;;;;;;0.40;0.30;;;6.90;99.90;;;;;;5011712;28;20388;-70
2022/04/11 07:08:40;;;;;;;0.40;0.20;;;7.00;98.90;;;;;;5012339;28;20381;-70
2022/04/11 07:11:06;;;;;;;0.60;0.50;;;7.10;97.60;;;;;;5012522;28;20393;-72
2022/04/11 07:13:34;;;;;;;0.40;0.20;;;7.20;96.80;;;;;;5012130;28;20405;-70
2022/04/11 07:16:00;;;;;;;0.40;0.20;;;7.30;96.20;;;;;;5012359;28;20411;-69
2022/04/11 07:18:27;;;;;;;0.40;0.20;;;7.40;95.20;;;;;;5011513;28;20396;-70
2022/04/11 07:20:56;;;;;;;0.40;0.20;;;7.60;93.60;;;;;;5012600;28;20387;-70
2022/04/11 07:23:21;;;;;;;0.40;0.20;;;7.70;92.30;;;;;;5011413;28;20389;-70
2022/04/11 07:25:47;;;;;;;0.40;0.20;;;7.80;92.10;;;;;;5012254;28;20395;-70
2022/04/11 07:28:13;;;;;;;0.40;0.20;;;7.90;92.00;;;;;;5011173;28;20408;-69
2022/04/11 07:30:40;;;;;;;0.40;0.20;;;8.10;92.40;;;;;;5011459;28;20393;-70
2022/04/11 07:33:06;;;;;;;0.40;0.20;;;8.00;91.80;;;;;;5011967;28;20409;-69
2022/04/11 07:35:32;;;;;;;0.40;0.20;;;8.00;91.50;;;;;;5011186;28;20385;-70
2022/04/11 07:37:57;;;;;;;0.40;0.20;;;8.10;91.10;;;;;;5011792;28;20514;-70
2022/04/11 07:40:25;;;;;;;0.40;0.20;;;8.10;91.50;;;;;;5011760;28;20451;-70
2022/04/11 07:42:51;;;;;;;0.40;0.20;;;8.10;91.80;;;;;;5011368;28;20439;-70
2022/04/11 07:45:21;;;;;;;0.40;0.20;;;8.00;91.60;;;;;;5011916;28;20393;-69
2022/04/11 07:47:48;;;;;;;0.70;0.50;;;8.10;90.80;;;;;;5009800;28;20878;-69
2022/04/11 07:50:14;;;;;;;0.40;0.20;;;8.10;91.60;;;;;;5012019;28;20396;-69
2022/04/11 07:52:41;;;;;;;0.40;0.30;;;8.10;92.20;;;;;;5011642;28;20381;-72
2022/04/11 07:55:08;;;;;;;0.40;0.30;;;8.20;92.90;;;;;;5010967;28;20395;-70
2022/04/11 07:57:34;;;;;;;0.40;0.27;;;8.10;93.30;;;;;;5011796;28;20373;-70
2022/04/11 08:00:00;;;;;;;0.40;0.40;;;8.20;93.50;;;;;;5010409;28;20743;-70
2022/04/11 08:02:26;;;;;;;0.40;0.20;;;8.30;93.20;;;;;;5011357;28;20519;-70
2022/04/11 08:04:53;;;;;;;0.40;0.20;;;8.50;92.90;;;;;;5010628;28;20381;-71
2022/04/11 08:07:20;;;;;;;3.70;0.60;;;8.40;92.40;;;;;;5009855;28;20401;-69
2022/04/11 08:09:46;;;;;;;0.40;0.20;;;8.40;91.90;;;;;;5016364;28;20391;-69
2022/04/11 08:12:11;;;;;;;1.02;0.93;;;8.50;91.70;;;;;;5029137;28;20379;-69
2022/04/11 08:14:37;;;;;;;0.40;0.20;;;8.50;91.70;;;;;;5011270;28;20448;-69
2022/04/11 08:17:03;;;;;;;0.40;0.20;;;8.60;91.40;;;;;;5010378;28;20418;-70
2022/04/11 08:19:32;;;;;;;0.40;0.30;;;8.70;91.80;;;;;;5011198;28;20866;-69
2022/04/11 08:21:58;;;;;;;0.40;0.30;;;8.60;91.00;;;;;;5011017;28;20484;-69
2022/04/11 08:24:24;;;;;;;0.40;0.22;;;8.70;91.30;;;;;;5010527;28;20495;-69
2022/04/11 08:26:50;;;;;;;0.40;0.20;;;8.70;90.50;;;;;;5011618;28;20385;-69
2022/04/11 08:29:17;;;;;;;0.40;0.20;;;8.70;89.20;;;;;;5010474;28;20477;-69
2022/04/11 08:31:44;;;;;;;0.40;0.20;;;8.70;88.50;;;;;;5019481;28;20405;-69
2022/04/11 08:34:10;;;;;;;0.40;0.20;;;8.80;88.80;;;;;;5010387;28;20423;-70
2022/04/11 08:36:35;;;;;;;0.40;0.40;;;9.00;88.40;;;;;;5010182;28;20400;-70
2022/04/11 08:39:02;;;;;;;0.40;0.20;;;9.10;88.20;;;;;;5009251;28;20769;-69
2022/04/11 08:41:33;;;;;;;0.40;0.20;;;9.30;87.30;;;;;;5009263;28;20396;-70
2022/04/11 08:44:04;;;;;;;0.40;0.20;;;9.20;84.70;;;;;;5010188;28;20392;-69
2022/04/11 08:46:32;;;;;;;0.40;0.20;;;9.30;84.30;;;;;;5009134;28;20428;-69
2022/04/11 08:49:00;;;;;;;0.40;0.30;;;9.50;84.50;;;;;;5007645;28;20914;-69
2022/04/11 08:51:26;;;;;;;0.40;0.30;;;9.50;85.60;;;;;;5009321;28;20420;-71
2022/04/11 08:53:52;;;;;;;0.40;0.30;;;9.50;85.00;;;;;;5010077;28;20496;-69
2022/04/11 08:56:18;;;;;;;0.40;0.20;;;9.50;84.40;;;;;;5010121;28;20420;-70
2022/04/11 08:58:44;;;;;;;0.40;0.20;;;9.50;84.00;;;;;;5009025;28;20427;-69
2022/04/11 09:01:10;;;;;;;0.40;0.40;;;9.60;82.90;;;;;;5009283;28;20715;-69
2022/04/11 09:03:36;;;;;;;0.40;0.30;;;9.80;82.50;;;;;;5009080;28;20387;-70
2022/04/11 09:06:14;;;;;;;0.40;0.22;;;9.90;81.30;;;;;;5009243;28;20409;-69
2022/04/11 09:08:42;;;;;;;0.40;0.20;;;10.00;81.10;;;;;;5014544;28;20864;-70
2022/04/11 09:11:09;;;;;;;0.40;0.30;;;9.90;82.50;;;;;;5008933;28;20531;-69
2022/04/11 09:13:51;;;;;;;0.40;0.20;;;10.10;81.80;;;;;;5015506;28;20511;-68
2022/04/11 09:16:17;;;;;;;0.40;0.20;;;10.10;79.70;;;;;;5014245;28;20442;-69
2022/04/11 09:18:52;;;;;;;10.80;1.10;;;10.30;80.50;;;;;;5007618;28;20910;-70
2022/04/11 09:21:20;;;;;;;0.40;0.20;;;10.40;80.00;;;;;;4994685;28;20392;-70
2022/04/11 09:23:47;;;;;;;0.40;0.20;;;10.50;81.10;;;;;;4993915;28;20685;-71
2022/04/11 09:26:21;;;;;;;0.40;0.30;;;10.40;81.30;;;;;;4994217;28;20406;-69
2022/04/11 09:28:59;;;;;;;0.50;0.35;;;10.40;82.20;;;;;;4994502;28;20413;-71
2022/04/11 09:31:25;;;;;;;0.40;0.30;;;10.40;81.80;;;;;;4994606;28;20926;-69
2022/04/11 09:33:51;;;;;;;0.40;0.20;;;10.40;81.20;;;;;;4993999;28;20418;-71
2022/04/11 09:36:17;;;;;;;0.40;0.20;;;10.50;81.80;;;;;;4994229;28;20387;-69
2022/04/11 09:38:43;;;;;;;0.40;0.20;;;10.60;81.90;;;;;;4994316;28;20498;-69
2022/04/11 09:41:09;;;;;;;0.40;0.20;;;10.60;82.00;;;;;;4993703;28;20374;-70
2022/04/11 09:43:35;;;;;;;0.40;0.20;;;10.80;83.70;;;;;;4994721;28;20767;-69
2022/04/11 09:46:02;;;;;;;0.40;0.32;;;10.90;81.90;;;;;;4993773;28;20382;-70
2022/04/11 09:48:37;;;;;;;0.40;0.20;;;11.00;81.30;;;;;;4994521;28;20384;-69
2022/04/11 09:51:10;;;;;;;0.40;0.20;;;11.10;81.20;;;;;;4993463;28;20386;-69
2022/04/11 09:53:36;;;;;;;0.40;0.20;;;11.00;81.60;;;;;;4994500;28;20421;-70
2022/04/11 09:56:06;;;;;;;0.50;0.50;;;11.00;82.30;;;;;;4994006;28;20387;-71
2022/04/11 09:58:34;;;;;;;0.40;0.20;;;11.00;81.30;;;;;;4994531;28;20541;-68
2022/04/11 10:01:02;;;;;;;0.40;0.20;;;11.30;82.50;;;;;;4994561;28;20469;-70
2022/04/11 10:03:29;;;;;;;0.40;0.30;;;11.50;80.40;;;;;;4993729;28;21030;-69
2022/04/11 10:05:56;;;;;;;0.40;0.20;;;11.60;78.60;;;;;;4993085;28;20386;-70
2022/04/11 10:08:27;;;;;;;0.50;0.40;;;11.50;78.30;;;;;;4993621;28;20500;-70
2022/04/11 10:10:55;;;;;;;0.40;0.20;;;11.90;79.10;;;;;;5022344;28;20390;-70
2022/04/11 10:13:21;;;;;;;0.40;0.20;;;11.80;77.70;;;;;;5032594;28;20411;-69
2022/04/11 10:15:51;;;;;;;0.40;0.20;;;11.90;77.00;;;;;;5033097;28;20379;-70
2022/04/11 10:18:21;;;;;;;0.40;0.20;;;12.00;75.80;;;;;;5031376;28;20748;-71
2022/04/11 10:20:50;;;;;;;0.70;0.70;;;12.10;76.00;;;;;;5033347;28;20383;-69
2022/04/11 10:23:34;;;;;;;0.40;0.20;;;12.30;76.50;;;;;;5033058;28;20821;-68
2022/04/11 10:26:12;;;;;;;0.40;0.40;;;12.40;74.90;;;;;;5033297;28;20441;-70
2022/04/11 10:28:47;;;;;;;0.40;0.20;;;12.60;75.90;;;;;;5032234;28;20426;-69
2022/04/11 10:31:14;;;;;;;0.40;0.20;;;12.60;74.30;;;;;;5033153;28;20386;-69
2022/04/11 10:33:51;;;;;;;0.40;0.20;;;12.80;75.30;;;;;;5032305;28;20438;-69
2022/04/11 10:36:35;;;;;;;0.40;0.20;;;12.70;73.70;;;;;;5032947;28;20386;-70
2022/04/11 10:39:15;;;;;;;0.60;0.60;;;13.10;73.90;;;;;;5032636;28;20407;-69
2022/04/11 10:41:56;;;;;;;1.00;1.00;;;13.10;73.20;;;;;;5032286;28;20419;-71
2022/04/11 10:44:45;;;;;;;0.40;0.20;;;13.30;73.10;;;;;;5032986;28;20876;-69
2022/04/11 10:47:11;;;;;;;0.40;0.20;;;13.50;72.20;;;;;;5032657;28;20398;-70
2022/04/11 10:49:49;;;;;;;0.40;0.30;;;13.40;72.00;;;;;;5033092;28;20788;-69
2022/04/11 10:52:31;;;;;;;0.40;0.30;;;13.50;70.30;;;;;;5031477;28;20388;-70
2022/04/11 10:55:17;;;;;;;0.40;0.20;;;13.90;70.50;;;;;;5032229;28;20395;-70
2022/04/11 10:57:51;;;;;;;0.40;0.20;;;14.00;69.30;;;;;;5032384;28;20888;-69
2022/04/11 11:00:18;;;;;;;0.40;0.20;;;14.00;69.40;;;;;;5032769;28;20391;-70
2022/04/11 11:02:50;;;;;;;0.40;0.20;;;14.00;68.90;;;;;;5032584;28;20479;-69
2022/04/11 11:05:24;;;;;;;0.40;0.20;;;13.90;67.50;;;;;;5032319;28;20449;-67
2022/04/11 11:08:11;;;;;;;0.40;0.20;;;14.20;67.30;;;;;;5032354;28;20490;-69
2022/04/11 11:11:00;;;;;;;0.40;0.30;;;14.50;67.00;;;;;;5019439;28;20400;-69
2022/04/11 11:13:34;;;;;;;0.40;0.20;;;14.50;65.80;;;;;;5012240;28;20404;-69
2022/04/11 11:16:20;;;;;;;0.50;0.50;;;14.40;64.80;;;;;;5011745;28;20392;-71
2022/04/11 11:18:48;;;;;;;1.50;1.00;;;14.80;64.80;;;;;;5012333;28;20389;-69
2022/04/11 11:21:15;;;;;;;0.40;0.20;;;15.10;63.90;;;;;;5011466;28;20399;-69
2022/04/11 11:23:42;;;;;;;0.40;0.20;;;14.60;63.40;;;;;;5012277;28;20399;-69
2022/04/11 11:26:15;;;;;;;0.80;0.80;;;15.20;64.10;;;;;;5011531;28;20411;-70
2022/04/11 11:28:42;;;;;;;0.40;0.20;;;15.50;64.80;;;;;;5011845;28;20384;-70
2022/04/11 11:31:08;;;;;;;0.40;0.20;;;15.70;62.80;;;;;;5011784;28;20401;-71
2022/04/11 11:33:35;;;;;;;0.40;0.25;;;16.10;61.90;;;;;;5011372;28;20455;-70
2022/04/11 11:36:02;;;;;;;0.40;0.20;;;16.40;61.90;;;;;;5012254;28;20393;-70
2022/04/11 11:38:30;;;;;;;0.40;0.30;;;17.50;61.00;;;;;;5011233;28;20420;-68
2022/04/11 11:41:00;;;;;;;0.40;0.30;;;17.30;57.10;;;;;;5011807;28;20864;-69
2022/04/11 11:43:27;;;;;;;0.40;0.20;;;17.70;54.80;;;;;;5010894;28;20486;-70
2022/04/11 11:46:00;;;;;;;0.40;0.20;;;18.60;55.90;;;;;;5010836;28;20881;-69
2022/04/11 11:48:31;;;;;;;0.40;0.30;;;19.30;55.10;;;;;;5011029;28;20809;-70
2022/04/11 11:50:59;;;;;;;0.40;0.30;;;19.60;52.30;;;;;;5011653;28;20464;-70
2022/04/11 11:53:38;;;;;;;0.40;0.20;;;19.90;52.20;;;;;;5010997;28;20400;-69
2022/04/11 11:56:07;;;;;;;0.40;0.30;;;19.80;52.50;;;;;;5011858;28;20400;-68
2022/04/11 11:58:38;;;;;;;0.40;0.30;;;18.90;52.10;;;;;;5010821;28;20885;-67
2022/04/11 12:01:05;;;;;;;0.40;0.20;;;18.70;51.10;;;;;;5012024;28;20385;-68
2022/04/11 12:06:23;;;;;;;0.70;0.70;;;19.70;54.00;;;;;;5011599;28;20377;-69
2022/04/11 12:08:58;;;;;;;0.40;0.30;;;20.20;49.70;;;;;;5010843;28;20384;-69
2022/04/11 12:11:25;;;;;;;0.40;0.30;;;20.30;52.20;;;;;;5030013;28;20724;-67
2022/04/11 12:14:01;;;;;;;0.40;0.20;;;19.90;50.10;;;;;;5030768;28;20418;-68
2022/04/11 12:16:29;;;;;;;0.50;0.40;;;20.20;50.90;;;;;;5031362;28;20474;-68
2022/04/11 12:19:00;;;;;;;0.40;0.20;;;19.30;50.80;;;;;;5029976;28;20390;-68
2022/04/11 12:21:36;;;;;;;0.40;0.20;;;19.90;51.60;;;;;;5031197;28;20452;-68
2022/04/11 12:24:03;;;;;;;0.40;0.20;;;19.70;51.10;;;;;;5029995;28;21327;-68
2022/04/11 12:26:39;;;;;;;0.60;0.60;;;20.50;50.70;;;;;;5030860;28;20895;-68
2022/04/11 12:29:17;;;;;;;0.40;0.30;;;19.10;50.50;;;;;;5030219;28;20430;-67
2022/04/11 12:31:59;;;;;;;0.40;0.20;;;19.60;48.80;;;;;;5031034;28;20407;-68
2022/04/11 12:34:36;;;;;;;0.40;0.20;;;20.30;50.90;;;;;;5030559;28;20443;-68
2022/04/11 12:37:09;;;;;;;0.60;0.50;;;20.30;50.90;;;;;;5030279;28;20411;-68
2022/04/11 12:39:57;;;;;;;0.40;0.20;;;20.00;52.50;;;;;;5030923;28;20389;-68
2022/04/11 12:42:28;;;;;;;0.40;0.20;;;20.30;50.90;;;;;;5030640;28;20384;-68
2022/04/11 12:45:13;;;;;;;0.40;0.30;;;20.30;49.20;;;;;;5032986;28;20395;-69
2022/04/11 12:48:02;;;;;;;0.40;0.30;;;19.70;51.40;;;;;;5000808;28;20411;-68
2022/04/11 12:50:28;;;;;;;0.40;0.20;;;19.10;53.00;;;;;;5006504;28;20412;-67
2022/04/11 12:52:54;;;;;;;0.40;0.20;;;19.40;51.70;;;;;;4991265;28;20402;-68
2022/04/11 12:55:31;;;;;;;0.70;0.60;;;20.00;52.20;;;;;;4989279;28;20762;-68
2022/04/11 12:58:08;;;;;;;0.40;0.30;;;19.50;51.80;;;;;;4991460;28;20389;-68
2022/04/11 13:00:36;;;;;;;0.40;0.30;;;20.00;50.60;;;;;;5001349;28;21481;-68